createdAt,value
2018-09-30T00:00:22.116Z,6.95
2018-09-30T00:02:50.729Z,6.92
2018-09-30T00:05:19.350Z,6.87
2018-09-30T00:07:47.944Z,6.82
2018-09-30T00:10:16.492Z,6.83
2018-09-30T00:12:45.077Z,6.88
2018-09-30T00:15:13.634Z,6.87
2018-09-30T00:17:42.221Z,6.91
2018-09-30T00:20:10.786Z,6.82
2018-09-30T00:22:39.381Z,6.89
2018-09-30T00:25:13.339Z,6.89
2018-09-30T00:27:41.908Z,6.84
2018-09-30T00:30:10.467Z,6.73
2018-09-30T00:32:39.035Z,6.69
2018-09-30T00:35:07.598Z,6.73
2018-09-30T00:37:36.193Z,6.84
2018-09-30T00:40:04.819Z,6.83
2018-09-30T00:49:35.058Z,6.52
2018-09-30T00:52:03.644Z,6.57
2018-09-30T00:54:32.215Z,6.61
2018-09-30T00:57:00.837Z,6.66
2018-09-30T00:59:29.417Z,6.64
2018-09-30T01:01:58.013Z,6.59
2018-09-30T01:04:26.720Z,6.68
2018-09-30T01:06:55.312Z,6.64
2018-09-30T01:09:23.890Z,6.62
2018-09-30T01:11:52.494Z,6.64
2018-09-30T01:14:21.089Z,6.62
2018-09-30T01:16:49.991Z,6.61
2018-09-30T01:19:18.628Z,6.65
2018-09-30T01:21:47.512Z,6.62
2018-09-30T01:24:16.090Z,6.62
2018-09-30T01:26:44.698Z,6.62
2018-09-30T01:29:13.241Z,6.58
2018-09-30T01:31:41.813Z,6.59
2018-09-30T01:34:10.412Z,6.51
2018-09-30T01:36:39.905Z,6.54
2018-09-30T01:39:08.645Z,6.47
2018-09-30T01:41:37.500Z,6.48
2018-09-30T01:44:06.142Z,6.56
2018-09-30T01:46:36.355Z,6.52
2018-09-30T01:49:04.991Z,6.48
2018-09-30T01:51:33.930Z,6.47
2018-09-30T01:54:02.587Z,6.38
2018-09-30T01:56:31.323Z,6.35
2018-09-30T01:59:00.022Z,6.37
2018-09-30T02:01:29.160Z,6.33
2018-09-30T02:03:57.788Z,6.40
2018-09-30T02:06:26.500Z,6.42
2018-09-30T02:08:59.912Z,6.36
2018-09-30T02:11:28.469Z,6.27
2018-09-30T02:13:57.065Z,6.28
2018-09-30T02:16:25.604Z,6.28
2018-09-30T02:18:54.226Z,6.26
2018-09-30T02:21:22.801Z,6.24
2018-09-30T02:23:51.392Z,6.15
2018-09-30T02:26:20.198Z,6.07
2018-09-30T02:28:48.822Z,6.05
2018-09-30T02:31:17.409Z,6.08
2018-09-30T02:33:47.222Z,5.93
2018-09-30T02:36:15.807Z,5.86
2018-09-30T02:38:44.402Z,5.89
2018-09-30T02:41:13.346Z,5.93
2018-09-30T02:43:42.374Z,5.98
2018-09-30T02:46:10.936Z,5.84
2018-09-30T02:48:39.526Z,5.84
2018-09-30T02:51:08.081Z,5.82
2018-09-30T02:53:36.670Z,5.74
2018-09-30T02:56:05.259Z,5.72
2018-09-30T02:58:33.839Z,5.77
2018-09-30T03:01:02.451Z,5.72
2018-09-30T03:03:31.086Z,5.62
2018-09-30T03:05:59.674Z,5.65
2018-09-30T03:09:37.422Z,5.60
2018-09-30T03:12:06.005Z,5.46
2018-09-30T03:14:34.636Z,5.40
2018-09-30T03:17:03.214Z,5.38
2018-09-30T03:19:31.818Z,5.30
2018-09-30T03:22:00.462Z,5.35
2018-09-30T03:24:31.997Z,5.23
2018-09-30T03:27:01.110Z,5.13
2018-09-30T03:29:29.756Z,5.21
2018-09-30T03:31:58.354Z,5.19
2018-09-30T03:34:26.949Z,5.08
2018-09-30T03:36:55.553Z,5.03
2018-09-30T03:39:24.149Z,4.98
2018-09-30T03:41:52.733Z,5.11
2018-09-30T03:44:21.334Z,5.20
2018-09-30T03:46:49.927Z,5.03
2018-09-30T03:49:18.545Z,5.15
2018-09-30T03:51:50.885Z,5.08
2018-09-30T03:54:20.798Z,5.15
2018-09-30T03:56:49.432Z,5.09
2018-09-30T03:59:18.075Z,5.03
2018-09-30T04:01:54.238Z,5.02
2018-09-30T04:04:22.913Z,5.03
2018-09-30T04:06:51.474Z,4.71
2018-09-30T04:09:20.077Z,4.47
2018-09-30T04:11:48.646Z,4.40
2018-09-30T04:14:17.253Z,4.50
2018-09-30T04:16:45.851Z,4.44
2018-09-30T04:19:14.426Z,4.52
2018-09-30T04:21:43.060Z,4.48
2018-09-30T04:24:12.014Z,4.61
2018-09-30T04:26:41.720Z,4.62
2018-09-30T04:29:10.857Z,4.55
2018-09-30T04:31:39.474Z,4.61
2018-09-30T04:34:08.298Z,4.57
2018-09-30T04:36:37.068Z,4.58
2018-09-30T04:39:08.536Z,4.53
2018-09-30T04:41:37.157Z,4.63
2018-09-30T04:44:10.621Z,4.45
2018-09-30T04:46:39.613Z,4.43
2018-09-30T04:49:08.185Z,4.50
2018-09-30T04:51:36.825Z,4.55
2018-09-30T04:54:05.414Z,4.54
2018-09-30T04:56:34.051Z,4.57
2018-09-30T04:59:03.050Z,4.60
2018-09-30T05:01:31.664Z,4.66
2018-09-30T05:04:01.064Z,4.75
2018-09-30T05:06:30.503Z,4.74
2018-09-30T05:08:59.055Z,4.72
2018-09-30T05:11:27.657Z,4.52
2018-09-30T05:13:56.244Z,4.58
2018-09-30T05:16:24.971Z,4.57
2018-09-30T05:18:53.555Z,4.62
2018-09-30T05:21:22.197Z,4.68
2018-09-30T05:23:50.788Z,4.57
2018-09-30T05:26:19.436Z,4.67
2018-09-30T05:28:49.211Z,4.72
2018-09-30T05:31:18.341Z,4.59
2018-09-30T05:33:50.009Z,4.79
2018-09-30T05:36:18.681Z,4.80
2018-09-30T05:38:47.305Z,4.94
2018-09-30T05:41:15.946Z,5.00
2018-09-30T05:43:44.562Z,5.02
2018-09-30T05:46:13.758Z,5.09
2018-09-30T05:48:49.101Z,5.20
2018-09-30T05:51:18.602Z,5.31
2018-09-30T05:53:47.160Z,5.36
2018-09-30T05:56:15.788Z,5.43
2018-09-30T05:58:44.347Z,5.46
2018-09-30T06:01:13.013Z,5.62
2018-09-30T06:03:41.585Z,5.61
2018-09-30T06:06:10.238Z,5.79
2018-09-30T06:08:38.808Z,5.84
2018-09-30T06:11:07.473Z,6.11
2018-09-30T06:13:36.473Z,6.15
2018-09-30T06:16:05.404Z,6.38
2018-09-30T06:18:33.893Z,6.61
2018-09-30T06:21:02.526Z,6.75
2018-09-30T06:23:33.196Z,7.12
2018-09-30T06:26:04.685Z,7.73
2018-09-30T06:28:33.289Z,8.86
2018-09-30T06:31:02.554Z,11.12
2018-09-30T06:33:31.779Z,13.84
2018-09-30T06:36:01.029Z,16.33
2018-09-30T06:38:32.914Z,18.56
2018-09-30T06:41:02.137Z,19.95
2018-09-30T06:43:31.390Z,20.92
2018-09-30T06:46:00.277Z,22.27
2018-09-30T06:48:29.243Z,24.01
2018-09-30T06:50:58.192Z,25.48
2018-09-30T06:53:26.793Z,26.75
2018-09-30T06:55:55.659Z,27.77
2018-09-30T06:58:24.621Z,29.03
2018-09-30T07:00:53.249Z,30.05
2018-09-30T07:03:21.880Z,30.44
2018-09-30T07:05:50.753Z,31.47
2018-09-30T07:08:19.642Z,32.61
2018-09-30T07:10:48.301Z,32.97
2018-09-30T07:13:18.577Z,33.74
2018-09-30T07:15:47.462Z,33.64
2018-09-30T07:18:18.663Z,34.74
2018-09-30T07:20:47.282Z,34.58
2018-09-30T07:23:16.319Z,35.11
2018-09-30T07:25:45.761Z,35.56
2018-09-30T07:28:14.782Z,35.32
2018-09-30T07:30:43.605Z,35.39
2018-09-30T07:33:12.284Z,34.50
2018-09-30T07:35:41.303Z,35.24
2018-09-30T07:38:10.435Z,36.29
2018-09-30T07:40:39.426Z,35.82
2018-09-30T07:43:08.062Z,36.83
2018-09-30T07:45:36.914Z,36.19
2018-09-30T07:48:06.244Z,37.80
2018-09-30T07:50:34.881Z,36.55
2018-09-30T07:53:03.749Z,38.71
2018-09-30T07:55:32.616Z,39.00
2018-09-30T07:58:04.065Z,38.61
2018-09-30T08:00:33.002Z,35.81
2018-09-30T08:03:01.897Z,34.56
2018-09-30T08:05:30.507Z,36.85
2018-09-30T08:07:59.406Z,35.04
2018-09-30T08:10:27.974Z,33.45
2018-09-30T08:12:57.059Z,31.63
2018-09-30T08:15:25.674Z,29.94
2018-09-30T08:17:55.185Z,30.51
2018-09-30T08:20:24.091Z,28.69
2018-09-30T08:22:52.957Z,25.44
2018-09-30T08:25:22.432Z,26.20
2018-09-30T08:27:51.615Z,26.15
2018-09-30T08:30:20.473Z,26.86
2018-09-30T08:32:49.444Z,26.62
2018-09-30T08:35:18.618Z,26.32
2018-09-30T08:37:52.732Z,25.63
2018-09-30T08:40:27.436Z,26.57
2018-09-30T08:42:56.046Z,31.26
2018-09-30T08:45:25.071Z,28.21
2018-09-30T08:47:56.095Z,30.21
2018-09-30T08:50:25.112Z,32.53
2018-09-30T08:52:54.141Z,32.13
2018-09-30T08:55:22.789Z,29.20
2018-09-30T08:57:51.356Z,27.05
2018-09-30T09:00:20.188Z,25.74
2018-09-30T09:02:49.499Z,25.12
2018-09-30T09:05:18.180Z,25.19
2018-09-30T09:07:47.012Z,24.85
2018-09-30T09:10:16.945Z,23.10
2018-09-30T09:12:45.521Z,22.12
2018-09-30T09:15:14.200Z,23.67
2018-09-30T09:17:43.182Z,24.50
2018-09-30T09:20:11.855Z,24.82
2018-09-30T09:22:41.719Z,24.80
2018-09-30T09:25:10.390Z,23.80
2018-09-30T09:27:38.977Z,22.62
2018-09-30T09:30:07.624Z,22.41
2018-09-30T09:32:38.621Z,21.96
2018-09-30T09:35:09.467Z,21.69
2018-09-30T09:37:39.001Z,21.61
2018-09-30T09:40:10.135Z,22.19
2018-09-30T09:42:39.246Z,22.39
2018-09-30T09:45:09.901Z,23.82
2018-09-30T09:47:38.943Z,23.33
2018-09-30T09:50:09.192Z,23.25
2018-09-30T09:52:38.366Z,23.37
2018-09-30T09:55:06.949Z,23.63
2018-09-30T09:57:35.982Z,23.87
2018-09-30T10:00:05.163Z,25.07
2018-09-30T10:02:33.988Z,24.11
2018-09-30T10:05:02.673Z,23.46
2018-09-30T10:07:31.712Z,24.41
2018-09-30T10:10:01.460Z,24.93
2018-09-30T10:12:30.213Z,23.88
2018-09-30T10:14:59.198Z,23.58
2018-09-30T10:17:29.051Z,23.97
2018-09-30T10:19:58.125Z,22.84
2018-09-30T10:22:27.082Z,23.20
2018-09-30T10:24:55.721Z,23.56
2018-09-30T10:27:24.325Z,23.60
2018-09-30T10:29:53.010Z,24.31
2018-09-30T10:32:22.111Z,24.60
2018-09-30T10:34:51.177Z,23.62
2018-09-30T10:37:20.413Z,23.21
2018-09-30T10:39:49.491Z,24.17
2018-09-30T10:42:18.330Z,23.94
2018-09-30T10:44:48.081Z,24.11
2018-09-30T10:47:17.075Z,25.01
2018-09-30T10:49:50.553Z,25.33
2018-09-30T10:52:20.147Z,25.51
2018-09-30T10:54:50.412Z,25.27
2018-09-30T10:57:19.293Z,26.57
2018-09-30T10:59:48.242Z,26.19
2018-09-30T11:02:16.830Z,24.71
2018-09-30T11:04:47.003Z,23.96
2018-09-30T11:07:16.054Z,24.33
2018-09-30T11:09:44.771Z,23.82
2018-09-30T11:12:13.526Z,24.39
2018-09-30T11:14:42.113Z,24.97
2018-09-30T11:17:10.739Z,26.26
2018-09-30T11:19:39.549Z,27.61
2018-09-30T11:22:09.518Z,27.50
2018-09-30T11:24:38.115Z,27.47
2018-09-30T11:27:07.966Z,27.23
2018-09-30T11:29:36.686Z,25.96
2018-09-30T11:32:05.356Z,25.88
2018-09-30T11:34:33.914Z,25.99
2018-09-30T11:37:02.545Z,26.75
2018-09-30T11:39:31.176Z,25.58
2018-09-30T11:42:00.823Z,24.77
2018-09-30T11:44:29.421Z,24.53
2018-09-30T11:46:59.959Z,23.98
2018-09-30T11:49:28.929Z,25.30
2018-09-30T11:51:58.284Z,25.59
2018-09-30T11:54:28.172Z,25.59
2018-09-30T11:56:57.097Z,25.45
2018-09-30T11:59:25.730Z,25.23
2018-09-30T12:01:54.433Z,24.66
2018-09-30T12:04:23.106Z,24.04
2018-09-30T12:06:52.169Z,23.77
2018-09-30T12:09:20.811Z,23.20
2018-09-30T12:11:49.435Z,22.31
2018-09-30T12:14:18.705Z,21.92
2018-09-30T12:16:47.345Z,21.76
2018-09-30T12:19:15.949Z,21.91
2018-09-30T12:21:44.581Z,20.95
2018-09-30T12:24:13.176Z,21.06
2018-09-30T12:26:41.830Z,21.37
2018-09-30T12:29:10.465Z,21.47
2018-09-30T12:31:39.201Z,21.41
2018-09-30T12:34:07.831Z,21.30
2018-09-30T12:36:36.790Z,21.01
2018-09-30T12:39:07.775Z,20.73
2018-09-30T12:41:36.450Z,21.87
2018-09-30T12:44:05.078Z,20.98
2018-09-30T12:46:34.076Z,20.81
2018-09-30T12:49:03.133Z,21.28
2018-09-30T12:51:31.780Z,20.39
2018-09-30T12:54:00.380Z,20.96
2018-09-30T12:56:29.473Z,21.98
2018-09-30T12:58:58.110Z,21.31
2018-09-30T13:01:26.730Z,20.77
2018-09-30T13:03:55.746Z,20.97
2018-09-30T13:06:24.737Z,21.07
2018-09-30T13:08:53.373Z,20.51
2018-09-30T13:11:21.994Z,21.36
2018-09-30T13:13:51.076Z,21.97
2018-09-30T13:16:19.685Z,21.55
2018-09-30T13:18:48.285Z,22.12
2018-09-30T13:21:16.884Z,22.15
2018-09-30T13:23:45.492Z,22.38
2018-09-30T13:26:14.409Z,22.04
2018-09-30T13:31:10.864Z,22.70
2018-09-30T13:33:40.152Z,22.53
2018-09-30T13:36:08.718Z,22.56
2018-09-30T13:38:38.208Z,22.17
2018-09-30T13:41:07.320Z,22.66
2018-09-30T13:43:35.820Z,23.01
2018-09-30T13:46:04.488Z,23.78
2018-09-30T13:48:34.139Z,22.67
2018-09-30T13:51:06.854Z,22.54
2018-09-30T13:53:36.190Z,23.06
2018-09-30T13:56:05.843Z,23.01
2018-09-30T13:58:34.475Z,23.67
2018-09-30T14:01:04.108Z,22.93
2018-09-30T14:03:33.065Z,23.03
2018-09-30T14:06:06.631Z,23.77
2018-09-30T14:08:35.802Z,23.00
2018-09-30T14:11:04.789Z,23.48
2018-09-30T14:13:33.388Z,24.44
2018-09-30T14:16:02.780Z,24.95
2018-09-30T14:18:35.146Z,25.12
2018-09-30T14:21:04.044Z,25.09
2018-09-30T14:23:33.167Z,24.30
2018-09-30T14:26:02.137Z,24.32
2018-09-30T14:28:31.418Z,24.44
2018-09-30T14:31:01.576Z,24.73
2018-09-30T14:33:30.204Z,25.11
2018-09-30T14:35:59.471Z,25.05
2018-09-30T14:38:29.417Z,25.26
2018-09-30T14:41:01.173Z,24.61
2018-09-30T14:43:30.285Z,23.28
2018-09-30T14:45:59.449Z,22.84
2018-09-30T14:48:28.925Z,22.74
2018-09-30T14:50:57.722Z,22.41
2018-09-30T14:53:26.620Z,22.19
2018-09-30T14:55:55.904Z,21.25
2018-09-30T14:58:25.421Z,20.73
2018-09-30T15:00:54.519Z,20.87
2018-09-30T15:03:23.413Z,20.64
2018-09-30T15:05:52.031Z,19.72
2018-09-30T15:08:27.688Z,19.69
2018-09-30T15:10:56.544Z,20.08
2018-09-30T15:13:25.416Z,20.27
2018-09-30T15:15:54.090Z,21.18
2018-09-30T15:18:22.745Z,22.00
2018-09-30T15:20:55.640Z,21.86
2018-09-30T15:23:24.698Z,22.53
2018-09-30T15:25:58.668Z,22.82
2018-09-30T15:28:34.786Z,22.89
2018-09-30T15:31:03.641Z,23.35
2018-09-30T15:33:32.762Z,23.72
2018-09-30T15:36:01.951Z,24.31
2018-09-30T15:38:31.232Z,24.87
2018-09-30T15:40:59.845Z,25.27
2018-09-30T15:46:04.757Z,23.91
2018-09-30T15:48:33.794Z,24.42
2018-09-30T15:51:02.432Z,24.44
2018-09-30T15:53:31.005Z,23.87
2018-09-30T15:55:59.605Z,23.25
2018-09-30T15:58:28.489Z,22.48
2018-09-30T16:00:57.389Z,22.64
2018-09-30T16:03:25.976Z,22.95
2018-09-30T16:05:54.996Z,23.10
2018-09-30T16:08:23.585Z,22.59
2018-09-30T16:10:52.219Z,22.34
2018-09-30T16:13:20.800Z,22.47
2018-09-30T16:15:49.627Z,22.47
2018-09-30T16:18:18.216Z,22.35
2018-09-30T16:20:47.126Z,22.03
2018-09-30T16:23:15.729Z,22.13
2018-09-30T16:25:44.344Z,21.97
2018-09-30T16:28:12.975Z,21.61
2018-09-30T16:30:41.622Z,21.39
2018-09-30T16:33:10.185Z,21.23
2018-09-30T16:35:39.280Z,20.90
2018-09-30T16:38:08.121Z,20.67
2018-09-30T16:40:36.727Z,20.22
2018-09-30T16:43:05.628Z,19.81
2018-09-30T16:45:34.236Z,19.39
2018-09-30T16:48:02.813Z,19.11
2018-09-30T16:50:31.456Z,18.72
2018-09-30T16:53:00.064Z,18.33
2018-09-30T16:55:28.698Z,18.23
2018-09-30T16:57:57.255Z,17.95
2018-09-30T17:00:26.559Z,17.68
2018-09-30T17:02:55.461Z,17.49
2018-09-30T17:05:24.098Z,17.39
2018-09-30T17:07:53.433Z,17.17
2018-09-30T17:10:23.037Z,17.08
2018-09-30T17:12:51.627Z,16.99
2018-09-30T17:15:20.241Z,16.82
2018-09-30T17:17:53.704Z,16.63
2018-09-30T17:20:23.685Z,16.56
2018-09-30T17:22:52.435Z,16.34
2018-09-30T17:25:21.038Z,16.27
2018-09-30T17:27:58.376Z,16.18
2018-09-30T17:30:26.953Z,16.05
2018-09-30T17:32:55.512Z,15.98
2018-09-30T17:35:27.711Z,15.84
2018-09-30T17:37:56.351Z,15.70
2018-09-30T17:40:24.848Z,15.54
2018-09-30T17:42:53.494Z,15.40
2018-09-30T17:45:25.835Z,15.27
2018-09-30T17:47:55.768Z,15.24
2018-09-30T17:50:24.309Z,15.06
2018-09-30T17:52:52.895Z,15.00
2018-09-30T17:55:21.464Z,14.96
2018-09-30T17:57:50.072Z,14.91
2018-09-30T18:00:18.620Z,14.76
2018-09-30T18:02:47.197Z,14.79
2018-09-30T18:06:40.158Z,14.67
2018-09-30T18:09:10.233Z,14.35
2018-09-30T18:11:39.827Z,14.27
2018-09-30T18:14:08.697Z,14.23
2018-09-30T18:16:39.808Z,14.17
2018-09-30T18:19:08.408Z,14.03
2018-09-30T18:21:37.028Z,13.89
2018-09-30T18:24:06.121Z,13.92
2018-09-30T18:26:34.748Z,13.83
2018-09-30T18:29:03.342Z,13.66
2018-09-30T18:31:31.971Z,13.61
2018-09-30T18:34:00.544Z,13.66
2018-09-30T18:36:29.120Z,13.63
2018-09-30T18:38:57.706Z,13.56
2018-09-30T18:41:26.284Z,13.48
2018-09-30T18:43:54.844Z,13.49
2018-09-30T18:46:23.518Z,13.43
2018-09-30T18:48:52.048Z,13.34
2018-09-30T18:52:45.055Z,13.31
2018-09-30T18:55:13.608Z,13.22
2018-09-30T18:57:42.339Z,13.10
2018-09-30T19:00:10.896Z,13.06
2018-09-30T19:02:39.812Z,13.01
2018-09-30T19:05:08.401Z,13.01
2018-09-30T19:07:36.944Z,12.97
2018-09-30T19:10:05.587Z,12.95
2018-09-30T19:12:34.160Z,12.96
2018-09-30T19:15:02.747Z,12.93
2018-09-30T19:17:31.341Z,12.90
2018-09-30T19:19:59.912Z,12.80
2018-09-30T19:23:52.892Z,12.71
2018-09-30T19:26:21.608Z,12.65
2018-09-30T19:28:50.218Z,12.64
2018-09-30T19:31:18.785Z,12.65
2018-09-30T19:33:47.716Z,12.46
2018-09-30T19:36:16.341Z,12.51
2018-09-30T19:38:44.896Z,12.40
2018-09-30T19:41:13.460Z,12.46
2018-09-30T19:43:42.041Z,12.42
2018-09-30T19:46:10.917Z,12.45
2018-09-30T19:48:39.542Z,12.34
2018-09-30T19:51:08.803Z,12.37
2018-09-30T19:53:43.226Z,12.28
2018-09-30T19:56:11.808Z,12.16
2018-09-30T19:58:40.475Z,12.12
2018-09-30T20:01:09.384Z,12.10
2018-09-30T20:03:37.895Z,12.04
2018-09-30T20:06:06.428Z,11.95
2018-09-30T20:08:35.262Z,11.91
2018-09-30T20:11:03.853Z,11.94
2018-09-30T20:13:38.664Z,11.84
2018-09-30T20:16:07.678Z,11.80
2018-09-30T20:18:36.277Z,11.68
2018-09-30T20:21:04.860Z,11.50
2018-09-30T20:23:33.458Z,11.29
2018-09-30T20:26:02.001Z,11.15
2018-09-30T20:28:30.673Z,11.06
2018-09-30T20:31:00.034Z,11.07
2018-09-30T20:33:28.607Z,11.04
2018-09-30T20:35:57.177Z,11.11
2018-09-30T20:38:25.834Z,11.12
2018-09-30T20:40:54.396Z,11.13
2018-09-30T20:43:22.992Z,11.14
2018-09-30T20:45:51.998Z,11.12
2018-09-30T20:48:20.581Z,11.16
2018-09-30T20:50:49.153Z,11.17
2018-09-30T20:53:25.353Z,11.13
2018-09-30T20:55:56.748Z,11.14
2018-09-30T20:58:25.432Z,11.07
2018-09-30T21:00:54.024Z,11.07
2018-09-30T21:03:22.624Z,11.00
2018-09-30T21:06:43.057Z,10.90
2018-09-30T21:09:13.694Z,10.90
2018-09-30T21:11:42.377Z,10.89
2018-09-30T21:14:13.289Z,10.82
2018-09-30T21:16:41.892Z,10.79
2018-09-30T21:19:10.531Z,10.77
2018-09-30T21:21:39.191Z,10.77
2018-09-30T21:24:07.809Z,10.79
2018-09-30T21:26:45.644Z,10.76
2018-09-30T21:29:15.845Z,10.69
2018-09-30T21:31:44.417Z,10.65
2018-09-30T21:34:13.035Z,10.74
2018-09-30T21:36:41.552Z,10.77
2018-09-30T21:39:11.021Z,10.70
2018-09-30T21:41:39.572Z,10.67
2018-09-30T21:44:08.380Z,10.63
2018-09-30T21:46:37.466Z,10.62
2018-09-30T21:49:06.119Z,10.63
2018-09-30T21:51:34.677Z,10.62
2018-09-30T21:54:03.285Z,10.60
2018-09-30T21:56:31.880Z,10.58
2018-09-30T21:59:00.436Z,10.59
2018-09-30T22:01:29.204Z,10.48
2018-09-30T22:03:57.693Z,10.49
2018-09-30T22:06:26.320Z,10.48
2018-09-30T22:08:54.882Z,10.40
2018-09-30T22:11:23.500Z,10.49
2018-09-30T22:13:52.032Z,10.41
2018-09-30T22:16:20.713Z,10.36
2018-09-30T22:18:49.268Z,10.31
2018-09-30T22:21:17.853Z,10.28
2018-09-30T22:23:51.620Z,10.24
2018-09-30T22:26:20.314Z,10.28
2018-09-30T22:28:48.877Z,10.28
2018-09-30T22:31:17.478Z,10.25
2018-09-30T22:33:46.017Z,10.20
2018-09-30T22:36:14.617Z,10.12
2018-09-30T22:38:43.189Z,10.07
2018-09-30T22:41:11.812Z,9.97
2018-09-30T22:43:40.373Z,9.85
2018-09-30T22:46:09.021Z,9.91
2018-09-30T22:49:24.781Z,9.85
2018-09-30T22:51:53.352Z,9.85
2018-09-30T22:54:21.921Z,9.75
2018-09-30T22:56:51.091Z,9.80
2018-09-30T23:02:25.583Z,9.85
2018-09-30T23:10:48.061Z,9.69
2018-09-30T23:16:17.253Z,9.70
2018-09-30T23:18:45.885Z,9.66
2018-09-30T23:21:14.538Z,9.59
2018-09-30T23:23:43.357Z,9.60
2018-09-30T23:26:12.375Z,9.61
2018-09-30T23:28:40.933Z,9.62
2018-09-30T23:31:09.508Z,9.61
2018-09-30T23:33:51.749Z,9.56
2018-09-30T23:36:22.554Z,9.57
2018-09-30T23:38:51.112Z,9.61
2018-09-30T23:41:19.678Z,9.42
2018-09-30T23:43:48.224Z,9.00
2018-09-30T23:46:22.237Z,8.75
2018-09-30T23:48:50.787Z,8.41
2018-09-30T23:51:19.380Z,8.23
2018-09-30T23:53:48.044Z,8.43
2018-09-30T23:56:16.653Z,8.64
2018-09-30T23:58:45.206Z,8.69
